Time;durP1;ratioP1;P1;durP2;ratioP2;P2;SDS_P1;SDS_P2;PMS_P1;PMS_P2;Temp;Humidity;BMP_temperature;BMP_pressure;BME280_temperature;BME280_humidity;BME280_pressure;Samples;Min_cycle;Max_cycle;Signal;HPM_P1;HPM_P2
2023/05/03 00:01:02;;;;;;;0.38;0.30;;;21.00;99.90;;;;;;5075118;28;20286;-77
2023/05/03 00:03:33;;;;;;;0.20;0.20;;;21.10;99.90;;;;;;5068640;28;20227;-77
2023/05/03 00:06:13;;;;;;;0.52;0.40;;;21.10;99.90;;;;;;5068492;28;20219;-77
2023/05/03 00:08:44;;;;;;;0.88;0.40;;;21.20;99.90;;;;;;5067786;28;20678;-77
2023/05/03 00:11:17;;;;;;;2.53;0.32;;;21.30;99.90;;;;;;5064618;28;20231;-77
2023/05/03 00:13:49;;;;;;;0.40;0.40;;;21.30;99.90;;;;;;5064712;28;20211;-77
2023/05/03 00:16:20;;;;;;;0.73;0.30;;;21.30;99.90;;;;;;5064473;28;20567;-77
2023/05/03 00:18:51;;;;;;;0.40;0.30;;;21.40;99.90;;;;;;5066246;28;20192;-77
2023/05/03 00:21:22;;;;;;;0.55;0.30;;;21.40;99.90;;;;;;5066607;28;20202;-77
2023/05/03 00:23:53;;;;;;;1.73;0.50;;;21.50;99.90;;;;;;5069113;28;20547;-77
2023/05/03 00:26:27;;;;;;;2.70;0.55;;;21.60;99.90;;;;;;5064754;28;20204;-77
2023/05/03 00:29:00;;;;;;;1.08;0.40;;;21.70;99.90;;;;;;5065234;28;20228;-78
2023/05/03 00:31:31;;;;;;;0.90;0.40;;;21.70;99.90;;;;;;5068877;28;20220;-78
2023/05/03 00:34:02;;;;;;;0.93;0.40;;;21.80;99.90;;;;;;5068142;28;20199;-77
2023/05/03 00:36:33;;;;;;;0.50;0.40;;;21.80;99.90;;;;;;5063699;28;22379;-77
2023/05/03 00:39:05;;;;;;;0.73;0.30;;;21.90;99.90;;;;;;5067335;28;20223;-77
2023/05/03 00:41:38;;;;;;;2.05;0.40;;;21.90;99.90;;;;;;5067758;28;20212;-77
2023/05/03 00:44:09;;;;;;;0.73;0.38;;;22.00;99.90;;;;;;5067766;28;20211;-77
2023/05/03 00:46:41;;;;;;;0.82;0.30;;;22.00;99.90;;;;;;5068790;28;20195;-78
2023/05/03 00:49:12;;;;;;;2.42;0.30;;;22.10;99.90;;;;;;5069287;28;20200;-77
2023/05/03 00:51:44;;;;;;;2.30;0.60;;;22.30;99.90;;;;;;5066503;28;20223;-77
2023/05/03 00:54:15;;;;;;;2.00;0.30;;;22.30;99.90;;;;;;5070564;28;20207;-77
2023/05/03 00:56:48;;;;;;;2.35;0.50;;;22.40;99.90;;;;;;5070329;28;20203;-77
2023/05/03 00:59:20;;;;;;;1.23;0.40;;;22.40;99.90;;;;;;5064232;28;20303;-77
2023/05/03 01:01:52;;;;;;;2.80;0.50;;;22.50;99.90;;;;;;5056704;28;20223;-77
2023/05/03 01:04:24;;;;;;;0.63;0.40;;;22.60;99.90;;;;;;5061543;28;20291;-77
2023/05/03 01:07:05;;;;;;;0.68;0.38;;;22.60;99.90;;;;;;5064856;28;20196;-77
2023/05/03 01:09:44;;;;;;;1.73;0.70;;;22.70;99.90;;;;;;5070612;28;20200;-77
2023/05/03 01:12:31;;;;;;;1.35;0.60;;;22.80;99.90;;;;;;5063852;28;20216;-77
2023/05/03 01:15:10;;;;;;;0.95;0.40;;;22.80;99.90;;;;;;5070219;28;20570;-77
2023/05/03 01:17:48;;;;;;;1.67;0.70;;;22.90;99.90;;;;;;5070407;28;20203;-77
2023/05/03 01:20:25;;;;;;;0.93;0.40;;;22.90;96.20;;;;;;5070211;28;20200;-77
2023/05/03 01:23:07;;;;;;;3.10;0.60;;;23.00;95.60;;;;;;5070316;28;20740;-78
2023/05/03 01:25:40;;;;;;;2.50;0.68;;;23.00;92.30;;;;;;5070511;28;20738;-78
2023/05/03 01:28:11;;;;;;;1.25;0.45;;;23.10;93.10;;;;;;5070324;28;20311;-77
2023/05/03 01:30:44;;;;;;;0.85;0.50;;;23.20;92.60;;;;;;5062573;28;20203;-77
2023/05/03 01:33:20;;;;;;;1.35;0.50;;;23.30;91.20;;;;;;5062334;28;20242;-77
2023/05/03 01:35:59;;;;;;;1.50;0.40;;;23.30;90.30;;;;;;5069150;28;20206;-76
2023/05/03 01:38:33;;;;;;;2.30;0.55;;;23.30;89.70;;;;;;5049980;28;20196;-77
2023/05/03 01:41:08;;;;;;;1.80;0.70;;;23.40;88.30;;;;;;5058804;28;20549;-78
2023/05/03 01:43:40;;;;;;;3.00;0.50;;;23.50;88.40;;;;;;5080011;28;20211;-77
2023/05/03 01:46:12;;;;;;;1.60;0.70;;;23.50;85.50;;;;;;5068269;28;20212;-77
2023/05/03 01:48:43;;;;;;;4.55;0.80;;;23.50;87.30;;;;;;5072045;28;20279;-77
2023/05/03 01:51:14;;;;;;;1.48;0.47;;;23.60;84.70;;;;;;5071128;28;20196;-79
2023/05/03 01:53:46;;;;;;;2.47;0.50;;;23.60;84.00;;;;;;5070634;28;20196;-76
2023/05/03 01:56:19;;;;;;;1.92;0.50;;;23.70;81.80;;;;;;5071707;28;20209;-77
2023/05/03 01:58:50;;;;;;;1.95;0.40;;;23.70;79.80;;;;;;5069434;28;20188;-77
2023/05/03 02:01:21;;;;;;;2.80;0.60;;;23.70;79.30;;;;;;5067733;28;20746;-76
2023/05/03 02:03:52;;;;;;;0.60;0.40;;;23.60;78.60;;;;;;5067486;28;20212;-76
2023/05/03 02:06:23;;;;;;;2.58;0.50;;;23.70;77.20;;;;;;5071947;28;20680;-76
2023/05/03 02:08:54;;;;;;;3.20;0.73;;;23.60;78.80;;;;;;5073008;28;20196;-76
2023/05/03 02:11:27;;;;;;;3.15;0.50;;;23.60;75.40;;;;;;5073482;28;20203;-77
2023/05/03 02:13:58;;;;;;;2.47;0.55;;;23.70;76.90;;;;;;5073524;28;20215;-77
2023/05/03 02:16:29;;;;;;;3.58;0.50;;;23.80;77.40;;;;;;5073795;28;20203;-76
2023/05/03 02:19:00;;;;;;;7.72;0.73;;;23.80;75.70;;;;;;5072923;28;20226;-77
2023/05/03 02:21:31;;;;;;;4.20;0.60;;;23.80;74.60;;;;;;5073047;28;20195;-76
2023/05/03 02:24:02;;;;;;;1.40;0.50;;;23.70;73.20;;;;;;5072840;28;20198;-75
2023/05/03 02:26:36;;;;;;;1.17;0.60;;;23.80;70.60;;;;;;5073083;28;20644;-76
2023/05/03 02:29:07;;;;;;;4.10;0.60;;;23.80;69.80;;;;;;5072844;28;20303;-77
2023/05/03 02:31:38;;;;;;;2.13;0.45;;;23.90;68.90;;;;;;5073162;28;20227;-78
2023/05/03 02:34:09;;;;;;;1.95;0.57;;;23.90;69.30;;;;;;5073310;28;20211;-76
2023/05/03 02:36:40;;;;;;;2.55;0.40;;;23.90;68.70;;;;;;5073192;28;20286;-76
2023/05/03 02:39:12;;;;;;;2.75;0.70;;;24.00;70.10;;;;;;5072989;28;20196;-76
2023/05/03 02:41:47;;;;;;;1.48;0.40;;;24.00;70.20;;;;;;5073623;28;20246;-78
2023/05/03 02:44:18;;;;;;;5.15;0.60;;;24.00;66.90;;;;;;5073290;28;20210;-78
2023/05/03 02:46:58;;;;;;;1.58;0.50;;;24.20;70.50;;;;;;5073527;28;20192;-77
2023/05/03 02:49:29;;;;;;;2.03;0.57;;;24.20;68.00;;;;;;5072605;28;20219;-77
2023/05/03 02:52:02;;;;;;;1.45;0.70;;;24.10;65.00;;;;;;5072009;28;20724;-76
2023/05/03 02:54:33;;;;;;;2.80;0.50;;;24.10;67.00;;;;;;5072462;28;20568;-77
2023/05/03 02:57:06;;;;;;;1.63;0.52;;;24.10;64.00;;;;;;5072316;28;20659;-77
2023/05/03 02:59:37;;;;;;;1.63;0.60;;;24.10;61.60;;;;;;5072364;28;20206;-78
2023/05/03 03:02:08;;;;;;;3.30;0.50;;;24.10;59.70;;;;;;5072094;28;20203;-78
2023/05/03 03:04:39;;;;;;;2.55;0.60;;;24.10;58.60;;;;;;5073133;28;20200;-76
2023/05/03 03:07:10;;;;;;;1.73;0.40;;;24.10;60.00;;;;;;5067289;28;20196;-76
2023/05/03 03:09:41;;;;;;;1.30;0.55;;;24.30;61.60;;;;;;5072648;28;20223;-76
2023/05/03 03:12:16;;;;;;;2.30;0.52;;;24.30;59.40;;;;;;5072220;28;20230;-76
2023/05/03 03:14:47;;;;;;;2.42;0.68;;;24.30;59.00;;;;;;5071678;28;20195;-76
2023/05/03 03:17:18;;;;;;;2.67;0.60;;;24.20;55.20;;;;;;5071842;28;20429;-76
2023/05/03 03:19:50;;;;;;;2.22;0.43;;;24.20;55.60;;;;;;5071751;28;20192;-77
2023/05/03 03:22:21;;;;;;;1.10;0.40;;;24.20;56.30;;;;;;5071693;28;20204;-77
2023/05/03 03:24:54;;;;;;;2.10;0.50;;;24.10;54.20;;;;;;5060364;28;20200;-78
2023/05/03 03:27:30;;;;;;;1.27;0.40;;;24.10;54.80;;;;;;5052030;28;20204;-76
2023/05/03 03:30:01;;;;;;;1.63;0.40;;;24.20;53.50;;;;;;5067183;28;20203;-77
2023/05/03 03:32:32;;;;;;;3.03;0.43;;;24.00;52.90;;;;;;5068170;28;20215;-77
2023/05/03 03:35:03;;;;;;;1.02;0.40;;;24.00;54.00;;;;;;5069479;28;20299;-77
2023/05/03 03:37:34;;;;;;;2.00;0.32;;;24.00;53.10;;;;;;5067934;28;20456;-77
2023/05/03 03:40:07;;;;;;;4.53;0.40;;;24.10;53.20;;;;;;5069475;28;20550;-77
2023/05/03 03:42:40;;;;;;;1.02;0.30;;;24.10;51.50;;;;;;5069071;28;20690;-78
2023/05/03 03:45:12;;;;;;;0.93;0.40;;;24.10;50.20;;;;;;5060654;28;20200;-77
2023/05/03 03:47:43;;;;;;;2.03;0.30;;;24.10;50.30;;;;;;5065679;28;20234;-77
2023/05/03 03:50:15;;;;;;;2.53;0.30;;;24.10;49.40;;;;;;5062403;28;20212;-77
2023/05/03 03:52:46;;;;;;;1.58;0.32;;;24.10;50.10;;;;;;5067807;28;20269;-78
2023/05/03 03:55:18;;;;;;;1.00;0.40;;;24.10;51.70;;;;;;5055785;28;20207;-76
2023/05/03 03:57:51;;;;;;;2.75;0.40;;;24.10;50.30;;;;;;5067999;28;20287;-78
2023/05/03 04:00:22;;;;;;;2.28;0.30;;;24.00;50.00;;;;;;5064143;28;20655;-77
2023/05/03 04:02:55;;;;;;;2.17;0.50;;;24.00;49.80;;;;;;5072362;28;20283;-77
2023/05/03 04:05:26;;;;;;;6.55;0.52;;;24.10;50.70;;;;;;5069804;28;20203;-78
2023/05/03 04:07:57;;;;;;;2.70;0.40;;;24.10;50.10;;;;;;5061533;28;20211;-76
2023/05/03 04:10:28;;;;;;;2.58;0.35;;;24.10;49.60;;;;;;5061626;28;20226;-78
2023/05/03 04:13:01;;;;;;;2.20;0.30;;;24.00;48.60;;;;;;5072734;28;20713;-78
2023/05/03 04:15:32;;;;;;;6.47;0.40;;;24.10;48.40;;;;;;5073097;28;20237;-79
2023/05/03 04:18:04;;;;;;;1.33;0.40;;;24.00;48.70;;;;;;5065513;28;20199;-77
2023/05/03 04:20:37;;;;;;;0.70;0.40;;;23.90;48.20;;;;;;5072196;28;20223;-77
2023/05/03 04:23:09;;;;;;;3.47;0.40;;;24.00;48.00;;;;;;5071722;28;20196;-79
2023/05/03 04:25:45;;;;;;;1.50;0.40;;;24.00;48.10;;;;;;5071887;28;20219;-79
2023/05/03 04:28:18;;;;;;;1.20;0.47;;;24.00;48.30;;;;;;5071021;28;20238;-78
2023/05/03 04:30:49;;;;;;;1.85;0.40;;;24.10;49.00;;;;;;5073564;28;20216;-76
2023/05/03 04:33:20;;;;;;;2.03;0.30;;;24.00;46.90;;;;;;5072874;28;20207;-77
2023/05/03 04:35:54;;;;;;;0.50;0.28;;;24.00;47.70;;;;;;5071273;28;20195;-76
2023/05/03 04:38:25;;;;;;;5.30;0.25;;;23.90;47.00;;;;;;5069571;28;20197;-76
2023/05/03 04:40:57;;;;;;;1.15;0.40;;;23.90;48.10;;;;;;5071464;28;20204;-75
2023/05/03 04:43:31;;;;;;;2.65;0.40;;;23.90;46.40;;;;;;5072338;28;20204;-75
2023/05/03 04:46:03;;;;;;;0.45;0.20;;;23.90;46.60;;;;;;5070685;28;20191;-76
2023/05/03 04:48:35;;;;;;;1.08;0.20;;;23.90;46.80;;;;;;5070538;28;20200;-77
2023/05/03 04:51:06;;;;;;;2.15;0.60;;;23.90;46.80;;;;;;5065563;28;20310;-77
2023/05/03 04:53:40;;;;;;;3.58;0.38;;;23.90;47.00;;;;;;5070398;28;20224;-77
2023/05/03 04:56:11;;;;;;;3.03;0.60;;;23.90;46.40;;;;;;5071186;28;20202;-77
2023/05/03 04:58:45;;;;;;;1.45;0.40;;;23.90;46.60;;;;;;5070819;28;20223;-77
2023/05/03 05:01:16;;;;;;;0.47;0.30;;;24.00;48.00;;;;;;5070035;28;20563;-77
2023/05/03 05:03:47;;;;;;;1.67;0.35;;;24.10;47.20;;;;;;5071933;28;20200;-77
2023/05/03 05:06:18;;;;;;;0.82;0.40;;;24.10;47.50;;;;;;5070573;28;20203;-77
2023/05/03 05:08:49;;;;;;;8.82;0.55;;;24.00;47.90;;;;;;5069415;28;20203;-77
2023/05/03 05:11:21;;;;;;;0.98;0.40;;;24.00;47.90;;;;;;5071321;28;20616;-77
2023/05/03 05:13:54;;;;;;;2.33;0.50;;;24.00;47.80;;;;;;5071954;28;20251;-77
2023/05/03 05:16:25;;;;;;;0.93;0.40;;;24.00;48.10;;;;;;5074421;28;20749;-76
2023/05/03 05:18:56;;;;;;;1.77;0.50;;;24.00;48.90;;;;;;5074920;28;20202;-77
2023/05/03 05:21:28;;;;;;;1.85;0.40;;;23.90;48.10;;;;;;5075406;28;20196;-78
2023/05/03 05:23:59;;;;;;;3.28;0.43;;;23.90;49.10;;;;;;5075896;28;20199;-78
2023/05/03 05:26:30;;;;;;;3.63;0.40;;;23.90;49.30;;;;;;5071913;28;20196;-78
2023/05/03 05:29:07;;;;;;;2.38;0.45;;;23.90;50.20;;;;;;5075851;28;20224;-78
2023/05/03 05:31:38;;;;;;;4.63;0.50;;;23.90;49.50;;;;;;5068428;28;20283;-78
2023/05/03 05:34:09;;;;;;;0.85;0.40;;;23.90;49.50;;;;;;5074638;28;20227;-77
2023/05/03 05:36:40;;;;;;;1.25;0.43;;;23.90;49.30;;;;;;5075443;28;20577;-77
2023/05/03 05:39:12;;;;;;;1.92;0.50;;;23.90;50.20;;;;;;5070013;28;20192;-78
2023/05/03 05:41:43;;;;;;;2.40;0.47;;;23.90;50.50;;;;;;5087363;28;20222;-78
2023/05/03 05:44:16;;;;;;;1.92;0.50;;;23.90;51.40;;;;;;5084915;28;20207;-76
2023/05/03 05:46:48;;;;;;;0.65;0.50;;;23.90;51.90;;;;;;5074719;28;20211;-78
2023/05/03 05:49:19;;;;;;;0.73;0.40;;;23.90;51.30;;;;;;5063698;28;20188;-78
2023/05/03 05:51:50;;;;;;;5.60;0.63;;;23.80;51.50;;;;;;5068861;28;20203;-79
2023/05/03 05:54:21;;;;;;;3.88;0.50;;;23.90;51.80;;;;;;5054569;28;20228;-78
2023/05/03 05:56:52;;;;;;;3.20;0.50;;;24.10;52.20;;;;;;5055288;28;20203;-77
2023/05/03 05:59:25;;;;;;;1.45;0.55;;;24.00;51.50;;;;;;5075132;28;20200;-78
2023/05/03 06:01:56;;;;;;;14.45;0.50;;;24.10;51.80;;;;;;5072634;28;20207;-77
2023/05/03 06:04:28;;;;;;;2.60;0.50;;;24.10;52.00;;;;;;5070700;28;20200;-77
2023/05/03 06:06:59;;;;;;;1.90;0.52;;;24.10;52.40;;;;;;5068967;28;20196;-77
2023/05/03 06:09:30;;;;;;;4.55;0.50;;;24.20;51.70;;;;;;5065916;28;20207;-78
2023/05/03 06:12:01;;;;;;;1.67;0.40;;;24.10;52.30;;;;;;5075490;28;20192;-77
2023/05/03 06:14:35;;;;;;;3.15;0.50;;;24.30;52.50;;;;;;5077158;28;20228;-78
2023/05/03 06:17:06;;;;;;;2.50;0.45;;;24.40;52.60;;;;;;5075943;28;20667;-77
2023/05/03 06:19:37;;;;;;;3.40;0.50;;;24.40;51.70;;;;;;5075433;28;20199;-78
2023/05/03 06:22:08;;;;;;;1.05;0.40;;;24.40;52.00;;;;;;5076043;28;20671;-77
2023/05/03 06:24:40;;;;;;;2.67;0.50;;;24.20;51.40;;;;;;5077995;28;20300;-78
2023/05/03 06:27:11;;;;;;;2.10;0.65;;;23.90;51.60;;;;;;5066837;28;20196;-76
2023/05/03 06:29:45;;;;;;;1.30;0.32;;;23.80;51.70;;;;;;5075606;28;20760;-78
2023/05/03 06:32:16;;;;;;;1.52;0.50;;;23.50;52.10;;;;;;5069262;28;20274;-77
2023/05/03 06:34:47;;;;;;;5.22;0.50;;;23.20;53.30;;;;;;5071406;28;20228;-76
2023/05/03 06:37:18;;;;;;;3.83;0.50;;;23.00;54.00;;;;;;5070159;28;20203;-76
2023/05/03 06:39:49;;;;;;;2.88;0.68;;;22.90;54.50;;;;;;5072743;28;20200;-76
2023/05/03 06:42:20;;;;;;;1.63;0.50;;;22.80;55.20;;;;;;5071050;28;20204;-77
2023/05/03 06:44:53;;;;;;;0.40;0.30;;;22.80;56.00;;;;;;5075066;28;20210;-76
2023/05/03 06:47:24;;;;;;;4.05;0.57;;;22.80;56.30;;;;;;5065740;28;20208;-77
2023/05/03 06:49:56;;;;;;;1.85;0.50;;;22.80;55.60;;;;;;5068702;28;20192;-77
2023/05/03 06:52:27;;;;;;;2.63;0.70;;;22.70;55.70;;;;;;5066125;28;20203;-77
2023/05/03 06:55:00;;;;;;;2.47;0.60;;;22.50;56.20;;;;;;5073236;28;20247;-77
2023/05/03 06:57:31;;;;;;;1.42;0.43;;;22.40;57.10;;;;;;5074099;28;20635;-78
2023/05/03 07:00:06;;;;;;;1.50;0.50;;;22.40;57.60;;;;;;5073827;28;20253;-77
2023/05/03 07:02:37;;;;;;;7.32;0.68;;;22.30;57.90;;;;;;5072683;28;20612;-76
2023/05/03 07:05:08;;;;;;;4.40;0.70;;;22.20;57.70;;;;;;5069008;28;20199;-77
2023/05/03 07:07:40;;;;;;;3.97;0.57;;;22.30;58.10;;;;;;5069993;28;20196;-77
2023/05/03 07:10:11;;;;;;;1.77;0.45;;;22.20;58.80;;;;;;5066299;28;20939;-77
2023/05/03 07:12:42;;;;;;;3.78;0.70;;;22.10;57.90;;;;;;5072021;28;20247;-76
2023/05/03 07:15:16;;;;;;;3.03;0.57;;;22.10;58.30;;;;;;5068752;28;20196;-77
2023/05/03 07:17:47;;;;;;;3.65;0.82;;;22.20;58.80;;;;;;5052652;28;20197;-76
2023/05/03 07:20:18;;;;;;;3.45;0.60;;;22.10;58.30;;;;;;5052966;28;20676;-76
2023/05/03 07:22:49;;;;;;;3.75;0.60;;;22.10;58.80;;;;;;5057051;28;20251;-77
2023/05/03 07:25:20;;;;;;;5.35;0.50;;;22.00;58.70;;;;;;5071718;28;20196;-76
2023/05/03 07:27:51;;;;;;;2.63;0.80;;;21.90;59.00;;;;;;5071625;28;20200;-75
2023/05/03 07:30:25;;;;;;;1.80;0.50;;;21.90;59.40;;;;;;5071609;28;20665;-76
2023/05/03 07:32:56;;;;;;;0.90;0.65;;;21.90;59.90;;;;;;5071643;28;20196;-75
2023/05/03 07:35:27;;;;;;;5.88;0.77;;;21.90;60.20;;;;;;5071550;28;20195;-75
2023/05/03 07:37:58;;;;;;;1.98;0.52;;;21.90;60.00;;;;;;5071015;28;20249;-76
2023/05/03 07:40:32;;;;;;;0.88;0.70;;;21.90;60.30;;;;;;5072181;28;20212;-75
2023/05/03 07:43:03;;;;;;;3.00;0.80;;;21.90;60.20;;;;;;5072142;28;20662;-76
2023/05/03 07:45:36;;;;;;;1.88;0.68;;;21.90;61.00;;;;;;5071552;28;20203;-75
2023/05/03 07:48:07;;;;;;;1.60;0.70;;;21.80;60.80;;;;;;5071323;28;20207;-77
2023/05/03 07:50:38;;;;;;;0.82;0.40;;;21.80;60.20;;;;;;5071362;28;20639;-76
2023/05/03 07:53:10;;;;;;;2.03;0.50;;;21.80;60.70;;;;;;5071359;28;20188;-76
2023/05/03 07:55:41;;;;;;;1.70;0.55;;;21.90;61.00;;;;;;5071361;28;20269;-76
2023/05/03 07:58:13;;;;;;;1.20;0.52;;;21.90;60.40;;;;;;5086852;28;20201;-76
2023/05/03 08:00:46;;;;;;;4.43;1.27;;;21.80;60.80;;;;;;5091722;28;20226;-76
2023/05/03 08:03:17;;;;;;;4.90;1.70;;;21.80;61.10;;;;;;5076488;28;20200;-76
2023/05/03 08:05:48;;;;;;;1.65;0.63;;;21.80;61.10;;;;;;5071091;28;20199;-76
2023/05/03 08:08:19;;;;;;;2.28;1.13;;;21.80;60.90;;;;;;5070900;28;20211;-76
2023/05/03 08:10:50;;;;;;;2.70;1.00;;;21.80;61.00;;;;;;5070877;28;20249;-76
2023/05/03 08:13:23;;;;;;;0.80;0.55;;;21.80;61.20;;;;;;5070930;28;20220;-77
2023/05/03 08:15:56;;;;;;;1.85;0.70;;;21.80;61.30;;;;;;5050704;28;20199;-76
2023/05/03 08:18:27;;;;;;;1.77;0.70;;;21.80;61.90;;;;;;5067854;28;20200;-77
2023/05/03 08:20:58;;;;;;;3.88;0.82;;;21.80;61.80;;;;;;5070747;28;20200;-75
2023/05/03 08:23:29;;;;;;;0.98;0.70;;;21.80;62.40;;;;;;5071028;28;20226;-76
2023/05/03 08:26:03;;;;;;;2.75;0.70;;;21.80;62.10;;;;;;5062417;28;20224;-75
2023/05/03 08:28:34;;;;;;;1.83;0.70;;;21.80;62.40;;;;;;5064849;28;20242;-77
2023/05/03 08:31:07;;;;;;;1.83;0.55;;;21.80;63.00;;;;;;5063828;28;20220;-77
2023/05/03 08:33:38;;;;;;;3.38;1.23;;;21.80;63.10;;;;;;5068270;28;20220;-75
2023/05/03 08:36:09;;;;;;;1.52;0.80;;;21.80;63.50;;;;;;5066668;28;20223;-75
2023/05/03 08:38:41;;;;;;;3.80;1.23;;;21.70;63.30;;;;;;5056916;28;20216;-76
2023/05/03 08:41:24;;;;;;;3.70;2.25;;;21.70;63.20;;;;;;5068287;28;20200;-76
2023/05/03 08:43:57;;;;;;;3.03;1.20;;;21.60;63.10;;;;;;5071504;28;20608;-74
2023/05/03 08:46:35;;;;;;;3.75;1.20;;;21.70;63.70;;;;;;5070491;28;20193;-75
2023/05/03 08:49:08;;;;;;;3.38;0.93;;;21.60;63.90;;;;;;5070552;28;20208;-75
2023/05/03 08:51:42;;;;;;;1.75;0.85;;;21.70;64.40;;;;;;5069762;28;20196;-76
2023/05/03 08:54:13;;;;;;;2.20;1.13;;;21.60;64.70;;;;;;5070400;28;20242;-75
2023/05/03 08:56:46;;;;;;;6.30;2.30;;;21.60;64.60;;;;;;5070950;28;20192;-76
2023/05/03 08:59:17;;;;;;;26.65;10.68;;;21.50;65.20;;;;;;5070506;28;20246;-76
2023/05/03 09:01:50;;;;;;;8.18;3.80;;;21.50;66.00;;;;;;5069914;28;20200;-76
2023/05/03 09:04:21;;;;;;;8.98;2.45;;;21.50;66.40;;;;;;5070636;28;20685;-75
2023/05/03 09:06:52;;;;;;;6.55;2.00;;;21.50;66.30;;;;;;5064548;28;20712;-75
2023/05/03 09:09:34;;;;;;;6.03;2.45;;;21.50;66.70;;;;;;5090069;28;20276;-76
2023/05/03 09:12:05;;;;;;;7.97;3.20;;;21.50;67.00;;;;;;5072026;28;20547;-77
2023/05/03 09:14:45;;;;;;;14.77;7.53;;;21.50;67.60;;;;;;5081384;28;20226;-75
2023/05/03 09:17:22;;;;;;;3.40;2.20;;;21.50;67.90;;;;;;5081935;28;20206;-76
2023/05/03 09:19:54;;;;;;;9.50;3.08;;;21.30;69.40;;;;;;5068980;28;20191;-75
2023/05/03 09:22:28;;;;;;;5.30;1.55;;;21.30;70.20;;;;;;5065938;28;20204;-75
2023/05/03 09:25:00;;;;;;;3.03;1.70;;;21.20;71.40;;;;;;5065606;28;20246;-75
2023/05/03 09:27:31;;;;;;;2.63;1.52;;;21.20;72.70;;;;;;5066447;28;20219;-76
2023/05/03 09:30:20;;;;;;;2.67;1.55;;;21.20;73.10;;;;;;5063227;28;20203;-76
2023/05/03 09:32:53;;;;;;;3.55;1.50;;;21.10;74.00;;;;;;5069434;28;20200;-75
2023/05/03 09:35:27;;;;;;;5.97;2.25;;;21.00;75.90;;;;;;5059306;28;20228;-76
2023/05/03 09:37:58;;;;;;;5.28;1.42;;;20.90;76.40;;;;;;5066650;28;20685;-76
2023/05/03 09:40:30;;;;;;;2.20;0.90;;;20.80;76.90;;;;;;5083250;28;20188;-76
2023/05/03 09:43:15;;;;;;;4.75;2.25;;;20.70;77.60;;;;;;5069873;28;20192;-75
2023/05/03 09:45:46;;;;;;;2.25;1.10;;;20.50;79.30;;;;;;5069819;28;20204;-74
2023/05/03 09:48:22;;;;;;;2.53;1.10;;;20.40;80.40;;;;;;5069630;28;20666;-75
2023/05/03 09:50:53;;;;;;;2.28;1.02;;;20.30;81.60;;;;;;5069671;28;20593;-75
2023/05/03 09:53:25;;;;;;;2.45;1.10;;;20.40;81.70;;;;;;5069718;28;20540;-76
2023/05/03 09:55:57;;;;;;;2.28;1.20;;;20.30;82.70;;;;;;5072271;28;20238;-75
2023/05/03 09:58:29;;;;;;;3.20;0.98;;;20.20;82.10;;;;;;5069537;28;20317;-75
2023/05/03 10:01:00;;;;;;;4.72;0.70;;;20.20;82.10;;;;;;5070023;28;20206;-76
2023/05/03 10:03:39;;;;;;;3.75;1.52;;;20.10;82.00;;;;;;5053170;28;20204;-75
2023/05/03 10:06:20;;;;;;;2.10;0.88;;;20.20;82.50;;;;;;5052893;28;20192;-74
2023/05/03 10:08:59;;;;;;;3.50;1.20;;;20.10;81.60;;;;;;5053090;28;20196;-75
2023/05/03 10:11:30;;;;;;;3.00;1.33;;;20.00;81.50;;;;;;5055435;28;20204;-76
2023/05/03 10:14:01;;;;;;;4.13;1.70;;;19.90;80.20;;;;;;5073501;28;20231;-75
2023/05/03 10:16:37;;;;;;;1.80;0.90;;;19.90;80.10;;;;;;5071226;28;20195;-75
2023/05/03 10:19:16;;;;;;;3.50;1.55;;;19.90;79.50;;;;;;5070358;28;20496;-75
2023/05/03 10:21:57;;;;;;;2.90;1.30;;;19.80;79.90;;;;;;5061664;28;20199;-75
2023/05/03 10:24:29;;;;;;;4.05;1.77;;;19.90;79.90;;;;;;5070834;28;20204;-74
2023/05/03 10:27:00;;;;;;;5.55;1.65;;;19.80;80.40;;;;;;5070255;28;20211;-75
2023/05/03 10:29:53;;;;;;;3.95;1.20;;;19.80;81.10;;;;;;5073438;28;20220;-74
2023/05/03 10:32:47;;;;;;;3.53;1.35;;;19.80;80.40;;;;;;5078844;28;20203;-75
2023/05/03 10:35:20;;;;;;;4.55;1.90;;;19.80;80.80;;;;;;5053189;28;20230;-75
2023/05/03 10:37:53;;;;;;;3.67;1.60;;;19.70;80.60;;;;;;5068608;28;20211;-75
2023/05/03 10:40:24;;;;;;;2.30;1.30;;;19.70;80.10;;;;;;5066950;28;20662;-76
2023/05/03 10:42:57;;;;;;;4.18;1.92;;;19.70;80.00;;;;;;5069010;28;20200;-75
2023/05/03 10:45:30;;;;;;;4.03;1.70;;;19.60;80.00;;;;;;5071721;28;20200;-75
2023/05/03 10:48:22;;;;;;;5.43;1.63;;;19.50;80.20;;;;;;5068412;28;20196;-74
2023/05/03 10:50:56;;;;;;;3.30;1.20;;;19.50;80.00;;;;;;5066107;28;20219;-74
2023/05/03 10:53:42;;;;;;;3.47;1.20;;;19.30;80.10;;;;;;5072397;28;20196;-75
2023/05/03 10:56:14;;;;;;;4.80;1.30;;;19.20;80.70;;;;;;5071604;28;20238;-75
2023/05/03 10:58:47;;;;;;;2.63;1.15;;;19.10;80.70;;;;;;5072689;28;20245;-75
2023/05/03 11:01:19;;;;;;;3.28;1.13;;;19.00;80.80;;;;;;5072462;28;20196;-75
2023/05/03 11:03:58;;;;;;;7.22;1.80;;;19.10;80.30;;;;;;5070890;28;20664;-75
2023/05/03 11:06:39;;;;;;;4.85;1.70;;;19.00;80.40;;;;;;5062758;28;20217;-74
2023/05/03 11:09:13;;;;;;;5.53;1.50;;;19.00;79.90;;;;;;5061375;28;20196;-74
2023/05/03 11:11:45;;;;;;;3.35;1.27;;;18.90;79.00;;;;;;5060371;28;20193;-74
2023/05/03 11:14:16;;;;;;;6.40;1.40;;;18.90;78.60;;;;;;5061423;28;20239;-77
2023/05/03 11:16:49;;;;;;;6.53;1.50;;;18.90;79.20;;;;;;5063116;28;20658;-76
2023/05/03 11:19:20;;;;;;;6.53;1.40;;;18.90;79.10;;;;;;5069786;28;20212;-76
2023/05/03 11:21:54;;;;;;;5.70;1.75;;;18.90;78.50;;;;;;5079199;28;20195;-76
2023/05/03 11:24:25;;;;;;;5.50;1.40;;;18.80;77.80;;;;;;5071986;28;20571;-77
2023/05/03 11:26:56;;;;;;;5.68;1.38;;;18.60;77.10;;;;;;5071865;28;20226;-76
2023/05/03 11:29:28;;;;;;;4.70;1.30;;;18.40;77.80;;;;;;5071431;28;20271;-75
2023/05/03 11:31:59;;;;;;;5.78;1.25;;;18.50;77.50;;;;;;5071653;28;20196;-76
2023/05/03 11:34:30;;;;;;;5.68;1.42;;;18.50;77.20;;;;;;5071491;28;20579;-75
2023/05/03 11:37:04;;;;;;;6.80;1.50;;;18.50;77.60;;;;;;5071624;28;20200;-76
2023/05/03 11:39:37;;;;;;;10.15;2.03;;;18.50;77.30;;;;;;5072110;28;20549;-77
2023/05/03 11:42:09;;;;;;;7.43;1.85;;;18.50;76.20;;;;;;5071404;28;20204;-76
2023/05/03 11:44:40;;;;;;;6.55;1.75;;;18.40;77.10;;;;;;5071286;28;20590;-76
2023/05/03 11:47:11;;;;;;;6.85;1.77;;;18.40;77.10;;;;;;5061223;28;20192;-76
2023/05/03 11:49:42;;;;;;;6.05;1.60;;;18.40;76.60;;;;;;5069719;28;20704;-76
2023/05/03 11:52:16;;;;;;;7.38;1.83;;;18.20;76.90;;;;;;5071290;28;20224;-76
2023/05/03 11:54:48;;;;;;;8.18;1.80;;;18.30;76.50;;;;;;5072016;28;20216;-75
2023/05/03 11:57:20;;;;;;;7.55;1.90;;;18.20;77.00;;;;;;5071938;28;20200;-76
2023/05/03 11:59:51;;;;;;;6.25;1.80;;;18.20;76.80;;;;;;5071328;28;20196;-76
2023/05/03 12:02:23;;;;;;;8.80;1.80;;;18.20;76.30;;;;;;5071050;28;20203;-77
2023/05/03 12:04:54;;;;;;;8.85;2.17;;;18.10;76.40;;;;;;5077644;28;20295;-77
2023/05/03 12:07:27;;;;;;;6.70;2.10;;;18.10;76.70;;;;;;5071674;28;20200;-77
2023/05/03 12:09:58;;;;;;;6.68;1.70;;;18.00;77.60;;;;;;5071527;28;20216;-78
2023/05/03 12:12:29;;;;;;;8.88;2.22;;;18.10;78.00;;;;;;5071875;28;20200;-76
2023/05/03 12:15:02;;;;;;;7.68;2.00;;;18.10;77.50;;;;;;5070953;28;20246;-76
2023/05/03 12:17:43;;;;;;;9.27;2.40;;;17.90;78.00;;;;;;5070726;28;20206;-77
2023/05/03 12:20:21;;;;;;;10.75;2.00;;;17.90;78.20;;;;;;5052037;28;20188;-77
2023/05/03 12:22:55;;;;;;;5.80;1.95;;;17.90;77.10;;;;;;5051486;28;20200;-77
2023/05/03 12:25:26;;;;;;;7.88;2.40;;;18.00;77.40;;;;;;5050512;28;20214;-76
2023/05/03 12:27:58;;;;;;;8.90;2.58;;;17.90;76.50;;;;;;5050906;28;20235;-75
2023/05/03 12:30:30;;;;;;;8.23;2.20;;;17.90;75.80;;;;;;5070052;28;20265;-75
2023/05/03 12:33:02;;;;;;;9.75;2.15;;;18.00;74.70;;;;;;5071411;28;20207;-77
2023/05/03 12:35:33;;;;;;;9.23;2.42;;;17.90;75.00;;;;;;5071218;28;20220;-77
2023/05/03 12:38:07;;;;;;;9.13;2.33;;;17.90;74.80;;;;;;5071686;28;20190;-75
2023/05/03 12:40:38;;;;;;;7.78;2.05;;;17.90;74.50;;;;;;5071851;28;20207;-76
2023/05/03 12:43:09;;;;;;;8.85;2.10;;;18.00;75.20;;;;;;5072726;28;21117;-76
2023/05/03 12:45:40;;;;;;;9.70;2.03;;;18.00;75.00;;;;;;5074445;28;20203;-77
2023/05/03 12:48:12;;;;;;;6.05;2.03;;;17.90;74.70;;;;;;5094898;28;20195;-77
2023/05/03 12:50:43;;;;;;;9.35;2.05;;;17.90;75.00;;;;;;5085235;28;20195;-76
2023/05/03 12:53:16;;;;;;;9.10;1.80;;;18.00;74.20;;;;;;5072653;28;20667;-77
2023/05/03 12:55:48;;;;;;;7.28;1.90;;;18.00;74.80;;;;;;5071662;28;20227;-77
2023/05/03 12:58:19;;;;;;;8.23;1.77;;;17.90;74.30;;;;;;5072362;28;20203;-78
2023/05/03 13:00:50;;;;;;;6.25;1.98;;;18.00;73.40;;;;;;5070734;28;20200;-75
2023/05/03 13:03:21;;;;;;;7.05;2.08;;;17.80;73.60;;;;;;5071258;28;20203;-75
2023/05/03 13:05:53;;;;;;;12.07;1.73;;;17.80;74.20;;;;;;5070794;28;20191;-77
2023/05/03 13:08:27;;;;;;;5.90;1.65;;;17.70;73.70;;;;;;5070425;28;20231;-76
2023/05/03 13:10:58;;;;;;;8.48;1.83;;;17.60;73.90;;;;;;5070322;28;20209;-76
2023/05/03 13:13:29;;;;;;;7.03;1.73;;;17.60;73.60;;;;;;5051893;28;20196;-77